Date,TemperatureHighF,TemperatureAvgF,TemperatureLowF,DewpointHighF,DewpointAvgF,DewpointLowF,HumidityHigh,HumidityAvg,HumidityLow,PressureMaxIn,PressureMinIn,WindSpeedMaxMPH,WindSpeedAvgMPH,GustSpeedMaxMPH,PrecipitationSumIn
2013-1-1,78.4,61.9,48.9,66.0,56.8,48.0,99,85,57,30.20,30.02,10,1,0,0.00
2013-1-2,81.4,65.3,52.4,70.0,61.1,51.0,99,87,61,30.05,29.96,10,1,0,0.00
2013-1-3,75.5,65.8,57.9,69.0,64.2,57.0,99,94,78,30.16,30.01,8,1,0,0.11
2013-1-4,61.0,57.9,54.8,60.0,57.4,54.0,98,97,95,30.26,30.13,8,1,0,0.07
2013-1-5,76.4,63.8,54.1,66.0,59.7,53.0,98,87,69,30.29,30.16,6,1,0,0.00
2013-1-6,79.8,69.0,61.8,72.0,65.9,60.0,99,90,72,30.19,30.04,9,1,0,0.00
2013-1-7,66.9,62.3,57.8,66.0,60.0,54.0,98,92,80,30.20,30.09,8,2,0,0.07
2013-1-8,82.8,70.2,60.7,73.0,66.1,60.0,99,88,63,30.21,30.11,6,1,0,0.00
2013-1-9,84.2,74.9,69.2,73.0,69.8,67.0,98,85,60,30.28,30.16,8,2,0,0.00
2013-1-10,82.3,74.5,67.2,71.0,67.7,64.0,96,81,58,30.28,30.19,13,4,0,0.00
2013-1-11,80.6,71.0,60.9,71.0,66.2,60.0,99,85,67,30.25,30.12,9,1,0,0.00
2013-1-12,81.6,70.6,59.8,70.0,64.8,59.0,99,83,60,30.17,30.07,13,2,0,0.00
2013-1-13,81.8,71.7,59.8,70.0,65.6,58.0,98,82,60,30.14,30.04,12,1,0,0.00
2013-1-14,82.3,69.1,59.3,69.0,63.1,58.0,98,83,57,30.17,30.09,7,1,0,0.00
2013-1-15,83.2,68.9,56.8,70.0,63.2,56.0,99,83,56,30.13,30.03,9,1,0,0.00
2013-1-16,83.8,69.6,57.8,68.0,62.0,56.0,98,79,50,30.09,29.98,9,1,0,0.00
2013-1-17,74.1,61.0,53.6,70.0,57.9,47.0,99,90,76,30.12,29.99,11,3,0,0.01
2013-1-18,62.2,52.4,38.3,59.0,47.5,35.0,94,83,73,30.29,30.12,14,2,0,0.01
2013-1-19,74.7,63.4,53.5,63.0,57.2,50.0,90,80,65,30.26,30.11,12,2,0,0.00
2013-1-20,75.9,65.2,58.9,66.0,60.9,57.0,98,86,67,30.16,30.02,8,1,0,0.00
2013-1-21,74.8,64.7,58.6,68.0,59.9,55.0,96,85,69,30.09,29.98,8,0,0,0.08
2013-1-22,66.4,55.5,43.6,54.0,45.8,39.0,94,73,39,30.27,30.05,10,1,0,0.00
2013-1-23,71.6,52.6,39.2,44.0,39.9,36.0,95,68,31,30.35,30.25,9,1,0,0.00
2013-1-24,74.0,53.9,37.3,54.0,45.5,36.0,98,77,46,30.33,30.21,8,1,0,0.00
2013-1-25,76.6,57.2,43.3,61.0,48.0,42.0,98,75,40,30.30,30.16,7,0,0,0.00
2013-1-26,77.9,58.6,41.3,61.0,50.9,40.0,98,78,49,30.27,30.15,8,1,0,0.00
2013-1-27,79.1,61.9,44.9,64.0,54.2,44.0,98,79,46,30.30,30.20,9,1,0,0.00
2013-1-28,78.7,68.1,58.4,68.0,63.5,58.0,98,86,68,30.32,30.20,9,1,0,0.00
2013-1-29,83.7,72.4,63.7,70.0,66.9,63.0,99,84,58,30.23,30.07,11,2,0,0.00
2013-1-30,84.1,72.9,65.6,69.0,66.3,64.0,95,81,56,30.09,29.90,13,4,0,0.00
2013-1-31,69.8,57.0,39.9,67.0,46.4,34.0,97,72,33,30.23,29.90,9,2,0,0.12
2013-2-1,71.1,50.0,32.3,43.0,35.1,29.0,96,64,21,30.35,30.22,8,1,0,0.00
2013-2-2,74.3,52.8,35.1,48.0,41.5,34.0,97,70,35,30.30,30.13,5,0,0,0.00
2013-2-3,72.6,52.9,35.1,54.0,44.1,33.0,97,75,46,30.19,30.06,12,2,0,0.00
2013-2-4,73.6,52.1,36.1,54.0,39.5,35.0,100,69,28,30.14,30.02,6,1,0,0.00
2013-2-5,79.4,56.6,36.7,55.0,46.2,34.0,97,72,41,30.09,29.98,6,0,0,0.00
2013-2-6,79.5,66.1,52.7,64.0,57.7,50.0,95,76,52,30.10,30.01,6,1,0,0.00
2013-2-7,82.4,70.8,59.0,67.0,63.2,57.0,97,78,52,30.05,29.84,15,3,0,0.00
2013-2-8,82.2,68.9,54.8,66.0,60.9,53.0,95,78,46,30.07,29.87,10,3,0,0.00
2013-2-9,77.6,62.3,48.3,60.0,53.8,47.0,98,77,46,30.18,30.06,6,1,0,0.00
2013-2-10,80.5,67.5,56.2,64.0,59.2,53.0,94,76,52,30.25,30.13,13,3,0,0.00
2013-2-11,82.7,69.6,56.3,66.0,61.8,55.0,97,78,53,30.19,30.05,9,2,0,0.00
2013-2-12,84.5,71.0,58.2,71.0,64.8,57.0,98,83,54,30.08,29.92,11,2,0,0.00
2013-2-13,84.7,72.8,61.4,73.0,68.1,60.0,97,86,62,29.97,29.83,14,4,0,0.69
2013-2-14,63.2,61.3,59.5,62.0,60.3,59.0,99,96,94,30.02,29.91,4,0,0,0.41
2013-2-15,70.2,59.0,52.9,62.0,56.0,51.0,99,90,65,30.07,29.94,5,1,0,0.05
2013-2-16,67.7,55.2,46.0,53.0,46.6,31.0,97,75,49,30.12,29.92,14,3,0,0.00
2013-2-17,57.7,44.3,30.9,30.0,25.6,20.0,84,52,23,30.33,30.13,13,2,0,0.00
2013-2-18,68.8,50.0,28.5,50.0,39.2,27.0,96,70,45,30.35,30.20,12,2,0,0.00
2013-2-19,79.5,61.7,45.0,60.0,52.4,43.0,97,75,46,30.21,30.06,10,2,0,0.01
2013-2-20,80.2,64.9,53.2,65.0,58.9,52.0,98,83,57,30.11,29.99,6,1,0,0.00
2013-2-21,84.3,68.8,56.8,68.0,61.1,55.0,96,79,50,30.09,29.96,10,1,0,0.00
2013-2-22,86.9,71.9,58.0,71.0,64.9,57.0,98,81,50,30.06,29.96,8,1,0,0.00
2013-2-23,87.1,75.1,67.9,72.0,69.1,66.0,97,83,55,30.00,29.87,11,3,0,0.00
2013-2-24,79.6,72.5,68.2,73.0,69.7,67.0,97,91,76,29.94,29.86,8,1,0,0.00
2013-2-25,86.2,74.5,65.7,72.0,67.4,65.0,99,80,52,29.89,29.75,10,2,0,0.00
2013-2-26,76.1,70.6,60.7,72.0,67.7,59.0,96,90,75,29.86,29.71,12,3,0,0.13
2013-2-27,77.1,63.8,53.9,62.0,57.0,51.0,98,81,48,29.96,29.86,8,1,0,0.01
2013-2-28,75.3,60.0,46.3,59.0,51.2,44.0,98,75,44,29.99,29.88,16,2,0,0.00
2013-3-1,65.8,53.2,42.4,48.0,43.6,41.0,96,72,44,30.01,29.91,11,2,0,0.00
2013-3-2,60.3,50.1,37.7,44.0,38.7,35.0,90,66,48,30.05,29.96,16,3,0,0.00
2013-3-3,54.8,44.3,35.6,39.0,35.2,32.0,93,71,52,30.16,29.98,13,2,0,0.00
2013-3-4,70.9,48.8,29.5,40.0,33.7,27.0,96,63,26,30.24,30.10,6,1,0,0.00
2013-3-5,76.3,57.1,37.3,58.0,47.2,34.0,97,73,36,30.17,30.02,10,2,0,0.00
2013-3-6,66.1,57.2,39.2,63.0,44.8,33.0,95,67,33,30.13,29.94,13,4,0,0.03
2013-3-7,71.2,51.5,36.3,43.0,37.9,33.0,90,64,32,30.22,30.12,9,1,0,0.00
2013-3-8,78.9,55.8,33.5,51.0,39.5,32.0,97,62,21,30.22,30.09,8,1,0,0.00
2013-3-9,76.2,60.1,41.0,54.0,48.1,39.0,97,68,39,30.21,30.12,8,2,0,0.00
2013-3-10,79.4,66.7,54.7,59.0,55.9,52.0,94,70,46,30.15,30.04,12,3,0,0.00
2013-3-11,78.5,67.6,57.1,63.0,59.0,55.0,94,76,55,30.08,29.89,14,2,0,0.00
2013-3-12,69.4,64.9,53.7,68.0,61.4,51.0,96,88,78,30.02,29.85,11,3,0,0.29
2013-3-13,76.6,59.0,43.9,50.0,44.3,38.0,96,65,25,30.17,30.02,12,2,0,0.00
2013-3-14,71.0,54.5,42.5,43.0,37.1,30.0,94,58,22,30.26,30.14,11,2,0,0.00
2013-3-15,74.7,53.1,33.3,48.0,38.6,31.0,97,64,30,30.28,30.13,8,1,0,0.00
2013-3-16,80.5,60.0,37.4,53.0,45.9,36.0,97,66,32,30.18,30.04,8,1,0,0.00
2013-3-17,78.2,60.1,44.7,61.0,52.9,43.0,98,79,50,30.13,29.99,10,1,0,0.00
2013-3-18,77.6,68.3,58.5,68.0,63.0,56.0,95,84,68,30.02,29.86,10,2,0,0.00
2013-3-19,88.0,72.2,60.8,68.0,64.0,59.0,98,78,48,29.99,29.87,7,1,0,0.00
2013-3-20,75.5,66.9,58.9,69.0,62.3,57.0,97,86,64,29.95,29.79,8,1,0,0.03
2013-3-21,73.2,58.0,41.9,58.0,43.8,31.0,96,66,25,29.98,29.86,10,2,0,0.01
2013-3-22,80.1,58.2,37.0,67.0,50.5,34.0,97,79,40,30.00,29.88,8,1,0,1.10
2013-3-23,85.0,72.4,63.4,75.0,68.2,62.0,98,87,64,29.97,29.77,14,2,0,0.00
2013-3-24,81.3,75.1,69.8,75.0,71.6,67.0,96,89,77,29.82,29.62,15,5,0,0.00
2013-3-25,70.1,62.9,48.8,67.0,48.6,33.0,96,65,28,30.03,29.72,13,3,0,0.00
2013-3-26,59.3,51.2,38.9,45.0,36.0,31.0,84,58,38,30.24,30.03,15,4,0,0.00
2013-3-27,64.5,47.5,34.4,38.0,34.6,31.0,92,66,30,30.31,30.20,10,2,0,0.00
2013-3-28,74.4,52.5,31.6,47.0,35.7,29.0,96,61,23,30.29,30.17,9,1,0,0.00
2013-3-29,77.2,56.7,37.0,54.0,39.7,35.0,97,61,24,30.32,30.17,7,1,0,0.00
2013-3-30,80.6,60.8,41.6,57.0,48.2,40.0,97,67,39,30.24,30.11,9,1,0,0.00
2013-3-31,82.4,65.2,50.8,61.0,55.1,48.0,97,73,39,30.16,29.99,11,2,0,0.00
2013-4-1,82.5,70.7,59.9,69.0,63.4,57.0,97,79,57,30.02,29.93,12,2,0,0.00
2013-4-2,86.3,70.3,56.1,68.0,60.2,54.0,97,74,35,30.07,29.98,7,1,0,0.00
2013-4-3,86.4,71.0,60.7,71.0,64.7,58.0,96,82,51,30.07,29.92,12,2,0,0.09
2013-4-4,71.9,68.8,66.1,69.0,67.0,64.0,96,94,82,30.03,29.85,13,3,0,0.43
2013-4-5,76.2,67.8,61.8,69.0,62.9,58.0,97,85,58,29.96,29.81,12,2,0,0.06
2013-4-6,79.7,66.3,54.3,61.0,57.3,52.0,92,74,51,30.10,29.98,8,2,0,0.00
2013-4-7,82.3,67.0,56.8,65.0,59.3,55.0,97,79,42,30.14,30.04,7,1,0,0.00
2013-4-11,88.6,77.8,72.2,75.0,69.4,-99.9,96,79,59,29.96,29.80,14,-13,0,0.33
2013-4-12,81.1,76.0,72.3,75.0,72.6,71.0,96,89,76,29.89,29.77,16,3,0,0.00
2013-4-13,86.9,76.3,66.9,73.0,68.9,64.0,97,79,58,29.96,29.86,5,0,0,0.00
2013-4-14,87.9,75.7,65.9,77.0,69.8,63.0,93,82,64,29.99,29.82,14,2,0,0.09
2013-4-15,91.6,76.3,63.7,73.0,68.0,62.0,97,78,51,30.05,29.91,6,1,0,0.01
2013-4-16,89.5,78.3,67.3,75.0,70.2,66.0,96,77,54,30.12,30.01,11,1,0,0.00
2013-4-17,86.0,74.8,61.7,71.0,66.0,60.0,98,76,52,30.12,30.00,11,2,0,0.00
2013-4-18,90.9,76.6,62.7,73.0,67.9,61.0,98,77,49,30.04,29.92,8,1,0,1.47
2013-4-19,87.9,78.1,69.4,76.0,71.4,67.0,98,81,57,30.00,29.89,12,2,0,0.13
2013-4-20,75.4,68.7,60.7,71.0,64.7,58.0,96,87,74,30.14,29.94,7,2,0,0.00
2013-4-21,81.2,69.1,59.9,73.0,65.7,58.0,97,89,75,30.13,30.00,7,1,0,0.17
2013-4-22,81.0,70.7,65.8,72.0,67.4,63.0,98,90,71,30.07,29.96,10,2,0,0.09
2013-4-23,85.3,73.2,64.9,70.0,64.4,61.0,94,76,52,30.09,30.00,15,2,0,0.00
2013-4-24,88.7,72.4,54.6,67.0,61.0,53.0,98,71,40,30.12,30.04,5,1,0,0.00
2013-4-25,90.1,74.6,59.0,70.0,64.3,57.0,97,73,44,30.19,30.08,5,0,0,0.00
2013-4-26,89.8,75.5,59.6,69.0,64.4,57.0,97,71,46,30.22,30.12,5,1,0,0.00
2013-4-27,85.7,74.5,63.1,71.0,66.2,61.0,97,77,51,30.21,30.07,9,2,0,0.00
2013-4-28,86.0,75.2,62.7,68.0,63.9,61.0,97,71,44,30.11,29.94,12,2,0,0.00
2013-4-29,86.3,75.6,65.8,70.0,66.7,63.0,94,75,54,30.01,29.88,9,1,0,0.00
2013-4-30,90.3,74.9,66.4,73.0,68.4,65.0,97,83,48,29.99,29.87,8,1,0,1.05
2013-5-1,76.3,70.8,67.3,73.0,69.3,66.0,98,95,87,29.99,29.91,5,0,0,0.35
2013-5-2,78.0,69.9,64.4,73.0,68.3,63.0,98,94,83,29.95,29.80,6,1,0,0.38
2013-5-3,85.3,72.7,65.6,74.0,69.1,65.0,98,89,62,29.82,29.69,9,1,0,0.03
2013-5-4,82.1,73.1,67.5,72.0,68.6,66.0,98,86,67,29.78,29.65,13,3,0,0.00
2013-5-5,77.5,68.3,56.3,67.0,58.0,52.0,96,72,43,29.93,29.76,12,3,0,0.00
2013-5-6,78.2,66.3,54.8,63.0,57.7,52.0,97,76,51,30.00,29.89,12,2,0,0.00
2013-5-7,78.8,65.1,50.7,64.0,57.1,49.0,98,77,53,30.04,29.96,12,2,0,0.00
2013-5-8,82.1,68.1,53.7,66.0,59.2,52.0,98,76,50,30.12,30.02,12,2,0,0.00
2013-5-9,87.5,70.7,53.2,69.0,60.7,52.0,98,74,42,30.14,30.05,6,0,0,0.00
2013-5-10,92.3,75.8,59.2,75.0,66.0,57.0,98,75,43,30.13,29.97,9,2,0,0.00
2013-5-11,89.1,76.4,65.3,76.0,69.5,63.0,97,81,57,30.04,29.96,12,2,0,0.00
2013-5-12,88.4,76.1,65.7,75.0,69.4,63.0,98,81,59,30.03,29.92,9,2,0,0.00
2013-5-13,85.2,71.2,57.4,67.0,60.6,52.0,98,73,36,30.12,29.99,13,1,0,0.00
2013-5-14,84.9,68.0,47.6,60.0,52.8,46.0,97,64,28,30.19,30.09,6,1,0,0.00
2013-5-15,85.8,71.8,53.1,66.0,59.0,51.0,97,67,41,30.20,30.06,8,1,0,0.00
2013-5-16,86.8,75.1,60.5,67.0,62.9,58.0,97,68,41,30.11,29.98,8,1,0,0.00
2013-5-17,88.7,76.8,60.9,71.0,65.3,59.0,97,70,43,30.08,30.00,9,1,0,0.00
2013-5-18,91.3,78.0,67.2,75.0,68.7,65.0,98,76,43,30.09,29.98,6,0,0,0.00
2013-5-23,-200.0,0.0,200.0,-99.9,-99.9,-99.9,0,0,100,30.12,30.00,0,-666,0,0.00
2013-6-6,77.9,77.9,77.9,75.0,75.0,75.0,90,90,90,29.67,29.67,0,0,0,0.00
2013-6-30,76.0,75.1,74.1,75.0,74.2,73.0,98,97,96,29.77,29.71,0,0,0,0.49
2013-7-1,79.9,75.4,72.6,77.0,74.2,72.0,99,96,90,29.89,29.74,0,0,0,0.19
2013-7-2,87.4,76.5,72.5,81.0,74.7,72.0,100,95,76,29.98,29.85,0,0,0,0.24
2013-7-3,90.1,77.1,72.6,80.0,75.0,72.0,100,93,69,30.01,29.93,0,0,0,1.11
2013-7-4,87.7,76.5,71.0,81.0,74.3,70.0,100,93,75,30.04,29.95,0,0,0,1.17
2013-7-5,89.5,77.5,69.7,81.0,75.0,69.0,100,92,69,30.04,29.94,0,0,0,0.20
2013-7-6,91.0,80.6,74.2,78.0,75.3,73.0,99,85,57,30.00,29.91,0,0,0,0.01
2013-7-7,90.6,82.2,73.2,79.0,75.5,72.0,99,81,61,30.02,29.91,0,0,0,0.00
2013-7-8,91.9,81.8,73.2,79.0,75.2,72.0,98,81,60,30.04,29.95,0,0,0,0.00
2013-7-9,86.2,75.8,71.3,78.0,70.4,-99.9,98,87,74,30.05,29.95,0,0,0,0.00
2013-7-10,93.1,80.2,71.1,77.0,73.4,70.0,98,81,56,29.98,29.84,0,0,0,0.00
2013-7-11,89.2,78.1,72.6,79.0,74.4,71.0,98,89,64,29.92,29.81,0,0,0,0.17
2013-7-12,87.2,76.5,71.7,81.0,75.1,71.0,100,95,76,29.85,29.78,0,0,0,0.93
2013-7-13,88.4,76.9,71.1,80.0,74.7,71.0,100,93,70,29.88,29.80,0,0,0,0.06
2013-7-14,90.7,77.1,71.9,81.0,74.7,71.0,100,92,69,29.97,29.85,0,0,0,0.06
2013-7-15,90.1,78.3,71.4,78.0,74.5,71.0,100,89,64,30.00,29.91,0,0,0,0.01
2013-7-16,87.9,77.1,72.8,79.0,74.3,72.0,99,92,66,30.04,29.97,0,0,0,0.57
2013-7-17,90.2,76.9,72.2,80.0,74.4,70.0,100,93,64,30.04,29.95,0,0,0,0.72
2013-7-18,88.1,76.9,70.6,78.0,74.0,70.0,100,91,65,30.00,29.92,0,0,0,0.42
2013-7-19,90.4,77.1,71.5,80.0,74.3,71.0,100,92,67,30.02,29.93,0,0,0,0.67
2013-7-20,90.3,77.0,71.6,82.0,74.9,71.0,100,94,70,29.99,29.90,0,0,0,1.05
2013-7-21,92.0,79.5,71.4,82.0,76.4,71.0,100,91,68,30.02,29.91,0,0,0,0.02
2013-7-22,92.5,80.4,74.2,82.0,76.4,74.0,100,88,58,30.01,29.95,0,0,0,0.01
2013-7-23,87.1,77.6,73.9,80.0,75.5,73.0,99,93,74,29.98,29.86,0,0,0,0.40
2013-7-24,87.7,80.2,73.9,81.0,77.4,74.0,100,91,75,29.89,29.78,0,0,0,0.04
2013-7-25,86.3,78.9,73.5,81.0,76.7,73.0,100,93,76,29.88,29.76,0,0,0,1.04
2013-7-26,92.7,80.8,74.3,82.0,77.4,74.0,100,90,67,29.90,29.83,0,0,0,0.00
2013-7-27,92.6,82.3,74.1,81.0,76.4,73.0,99,84,55,29.88,29.78,0,0,0,0.00
2013-7-28,89.8,78.4,72.8,80.0,75.6,72.0,99,91,67,29.95,29.82,0,0,0,0.04
2013-7-29,94.5,80.4,71.0,80.0,74.9,70.0,100,85,56,30.04,29.91,0,0,0,0.00
2013-7-30,93.7,81.6,72.3,84.0,75.7,72.0,100,84,58,30.06,29.95,0,0,0,0.00
2013-7-31,91.4,80.5,73.0,85.0,76.8,72.0,99,89,71,30.02,29.88,0,0,0,0.02
2013-8-1,91.9,79.0,72.4,81.0,75.3,72.0,99,89,61,29.95,29.83,0,0,0,0.01
2013-8-2,93.9,80.5,71.9,81.0,76.0,72.0,100,87,62,29.93,29.83,0,0,0,0.00
2013-8-3,90.9,79.2,73.4,81.0,76.1,73.0,100,91,69,29.99,29.89,0,0,0,0.13
2013-8-4,87.3,78.5,73.8,83.0,77.5,74.0,100,97,81,29.98,29.88,0,0,0,0.88
2013-8-5,91.3,79.3,74.1,83.0,74.7,-99.9,100,90,74,29.91,29.80,0,-17,0,0.00
2013-8-6,93.2,81.3,74.0,83.0,77.7,74.0,100,90,67,29.86,29.77,0,0,0,0.08
2013-8-7,93.3,81.8,75.8,81.0,77.7,74.0,100,88,62,29.86,29.78,0,0,0,0.02
2013-8-8,91.5,81.3,75.3,81.0,77.1,74.0,99,88,67,29.92,29.82,0,0,0,0.04
2013-8-9,91.1,79.0,73.8,81.0,76.0,73.0,100,91,65,29.95,29.86,0,0,0,0.17
2013-8-10,92.9,81.9,71.6,82.0,75.8,71.0,100,83,57,30.01,29.92,0,0,0,0.01
2013-8-11,95.0,84.1,73.8,80.0,76.6,73.0,99,80,54,30.04,29.94,0,0,0,0.00
2013-8-12,92.5,82.8,73.1,82.0,76.3,72.0,98,82,61,30.01,29.88,0,0,0,0.00
2013-8-13,94.1,83.5,73.9,80.0,76.7,73.0,98,81,58,29.94,29.81,0,0,0,0.00
2013-8-14,91.7,80.1,74.1,82.0,77.0,73.0,98,90,68,29.91,29.81,0,0,0,0.02
2013-8-15,92.5,80.9,71.4,80.0,76.0,71.0,99,86,63,29.93,29.82,0,0,0,0.00
2013-8-16,91.3,82.4,74.9,82.0,77.9,73.0,98,87,65,29.95,29.84,0,0,0,0.23
2013-8-17,92.3,80.5,74.0,82.0,76.9,73.0,99,89,67,29.97,29.87,0,0,0,0.06
2013-8-18,89.5,78.9,74.4,81.0,76.4,74.0,99,92,73,30.00,29.90,0,0,0,0.31
2013-8-19,92.7,80.8,72.7,81.0,76.6,72.0,100,88,63,29.96,29.84,0,0,0,0.02
2013-8-20,92.4,79.6,72.0,81.0,75.3,71.0,100,88,61,29.98,29.86,0,0,0,0.09
2013-8-21,92.2,78.6,72.0,81.0,75.6,70.0,99,91,67,29.99,29.90,0,0,0,0.14
2013-8-22,90.1,79.1,74.4,82.0,76.3,73.0,99,91,72,29.97,29.85,0,0,0,0.41
2013-8-23,92.8,79.9,73.5,82.0,76.8,72.0,100,91,66,29.91,29.82,14,0,25,2.16
2013-8-24,92.0,79.0,71.9,82.0,75.8,72.0,100,91,66,30.00,29.89,6,0,19,0.02
2013-8-25,89.6,79.8,73.5,80.0,76.2,73.0,100,89,70,30.04,29.95,8,1,13,0.00
2013-8-26,90.7,78.2,73.8,80.0,74.1,-99.9,99,90,69,30.02,29.89,5,-11,16,0.04
2013-8-27,90.5,80.0,72.1,79.0,74.1,72.0,100,84,59,29.95,29.86,7,1,12,0.01
2013-8-28,92.8,79.2,69.2,77.0,72.2,68.0,99,81,53,29.95,29.85,6,0,13,0.00
2013-8-29,92.2,80.3,70.3,78.0,73.8,69.0,99,82,57,29.93,29.81,6,0,11,0.00
2013-8-30,90.9,79.9,72.8,80.0,76.1,72.0,99,88,66,29.88,29.78,6,1,14,0.27
2013-8-31,90.2,79.2,73.5,81.0,75.9,71.0,99,90,66,29.87,29.78,7,0,27,0.58
2013-9-1,93.6,80.1,70.9,81.0,74.6,70.0,99,84,55,29.88,29.77,9,1,17,0.00
2013-9-2,92.1,79.7,71.2,80.0,74.9,70.0,99,86,64,29.90,29.82,8,1,14,0.00
2013-9-3,90.3,80.1,72.1,82.0,75.9,71.0,99,87,68,30.01,29.83,9,1,12,0.00
2013-9-4,94.2,79.3,71.8,80.0,75.0,70.0,99,88,61,30.09,29.98,5,0,17,0.70
2013-9-5,93.7,80.1,71.5,81.0,75.0,70.0,99,85,60,30.11,30.00,11,1,14,0.00
2013-9-6,92.9,78.0,71.4,81.0,74.1,70.0,99,89,61,30.07,29.93,14,1,22,0.53
2013-9-7,91.9,77.9,69.5,79.0,73.6,69.0,100,88,63,30.04,29.92,9,0,17,0.01
2013-9-8,91.3,79.8,70.3,78.0,73.7,69.0,99,83,57,29.99,29.87,7,1,12,0.00
2013-9-9,92.0,80.9,71.0,78.0,73.5,70.0,98,80,52,30.04,29.95,7,1,11,0.00
2013-9-10,89.3,80.4,72.5,77.0,73.4,71.0,99,81,56,30.10,30.00,9,1,14,0.00
2013-9-11,90.5,81.0,72.9,78.0,73.5,72.0,98,80,55,30.09,29.99,12,1,14,0.00
2013-9-12,88.2,78.0,71.9,79.0,74.6,71.0,99,90,73,30.03,29.90,5,0,19,2.74
2013-9-13,92.3,78.8,70.8,80.0,74.5,71.0,100,88,59,29.92,29.81,8,0,14,0.01
2013-9-14,93.0,80.7,71.7,81.0,75.7,71.0,100,86,61,30.00,29.85,4,0,12,0.01
2013-9-15,91.6,77.6,72.6,81.0,74.7,71.0,100,92,67,30.08,29.98,8,1,19,0.04
2013-9-16,89.5,76.1,70.8,81.0,73.8,70.0,100,93,71,30.08,30.02,7,0,11,0.00
2013-9-19,89.0,79.5,75.6,76.0,69.2,-99.9,90,78,65,30.04,29.97,5,-30,10,0.00
2013-9-20,89.0,78.6,69.2,75.0,71.3,68.0,98,80,58,30.04,29.91,8,1,12,0.00
2013-9-21,90.5,78.1,68.0,75.0,71.2,67.0,99,81,53,29.96,29.78,6,0,9,0.00
2013-9-22,89.1,78.4,72.9,80.0,75.4,71.0,98,91,71,29.87,29.77,11,1,22,0.50
2013-9-23,83.8,76.3,73.0,80.0,75.7,73.0,100,98,87,29.97,29.85,7,0,12,0.91
2013-9-24,82.2,76.3,73.9,79.0,75.6,74.0,100,97,86,29.97,29.86,7,1,13,0.12
2013-9-25,80.2,74.9,71.5,77.0,74.1,72.0,100,97,88,29.90,29.80,8,1,12,0.37
2013-9-26,89.8,79.3,73.7,82.0,75.3,71.0,100,89,55,29.89,29.80,11,2,19,0.14
2013-9-27,83.1,75.3,69.1,77.0,72.2,68.0,100,90,75,29.98,29.87,11,1,16,0.00
2013-9-28,85.9,75.4,70.3,78.0,73.1,69.0,100,93,71,30.01,29.93,9,1,13,0.04
2013-9-29,90.3,78.2,68.1,76.0,71.6,68.0,99,82,56,30.01,29.91,6,0,9,0.00
2013-9-30,90.2,81.2,69.2,76.0,70.5,-99.9,99,76,55,30.02,29.92,10,-15,11,0.00
2013-10-1,90.7,79.6,69.9,77.0,72.7,69.0,99,81,55,30.07,29.97,6,1,12,0.00
2013-10-2,89.5,78.5,69.5,77.0,72.5,68.0,98,83,62,30.07,29.98,9,1,12,0.00
2013-10-3,89.3,78.8,68.8,76.0,72.4,68.0,98,82,58,30.09,29.99,8,1,10,0.00
2013-10-4,91.1,79.0,70.1,78.0,73.4,69.0,98,84,55,30.10,30.00,4,0,10,0.00
2013-10-5,91.4,78.8,68.6,77.0,72.3,68.0,99,82,58,30.07,29.95,9,1,11,0.00
2013-10-6,92.2,78.8,69.9,78.0,73.2,69.0,99,84,58,30.00,29.86,7,1,11,0.00
2013-10-7,87.0,76.8,71.5,79.0,74.4,70.0,98,93,74,29.88,29.75,10,1,18,0.26
2013-10-8,88.3,78.1,72.7,80.0,75.4,72.0,100,92,72,29.96,29.80,9,1,19,0.34
2013-10-9,81.9,73.2,67.1,74.0,70.5,66.0,98,91,74,30.05,29.95,7,1,13,0.00
2013-10-10,88.7,73.4,62.4,75.0,67.7,62.0,99,84,54,30.07,29.98,6,0,10,0.00
2013-10-11,89.1,73.5,61.4,74.0,66.8,60.0,99,81,53,30.06,29.96,8,0,9,0.00
2013-10-12,87.0,72.5,61.0,72.0,65.2,60.0,99,80,50,30.06,29.98,7,0,12,0.00
2013-10-13,87.5,72.2,60.0,74.0,64.4,59.0,99,79,49,30.10,30.00,9,0,10,0.00
2013-10-14,86.1,72.7,62.1,73.0,66.5,61.0,99,82,56,30.06,29.94,8,1,11,0.00
2013-10-15,75.1,67.9,63.5,72.0,66.8,62.0,99,96,91,30.02,29.94,4,0,8,0.00
2013-10-18,89.8,80.5,75.1,76.0,69.7,-99.9,93,74,59,29.97,29.90,4,-23,10,0.00
2013-10-19,88.8,78.2,69.9,78.0,73.6,69.0,99,86,67,29.97,29.87,8,0,11,0.64
2013-10-20,90.0,78.9,72.4,80.0,75.3,71.0,99,89,70,29.98,29.88,6,0,9,0.00
2013-10-21,90.6,78.0,70.0,80.0,73.8,69.0,99,88,60,30.01,29.92,4,0,10,0.00
2013-10-22,88.8,77.2,69.6,79.0,73.8,69.0,100,90,71,29.96,29.83,10,1,17,0.13
2013-10-23,81.0,72.4,63.0,73.0,67.3,59.0,99,85,51,30.03,29.82,11,2,15,0.04
2013-10-24,70.2,63.1,57.6,62.0,57.9,52.0,95,83,71,30.18,30.03,7,0,9,0.00
2013-10-25,81.5,65.0,53.3,64.0,57.9,53.0,99,81,48,30.26,30.16,6,0,12,0.00
2013-10-26,80.0,64.2,52.5,63.0,57.6,52.0,99,82,52,30.23,30.10,5,0,10,0.01
2013-10-27,79.6,63.6,51.1,65.0,57.3,50.0,99,82,50,30.15,30.07,7,0,11,0.00
2013-10-28,82.9,66.4,52.4,71.0,60.7,52.0,99,84,57,30.21,30.11,5,0,9,0.00
2013-10-29,84.2,70.6,59.3,71.0,64.6,59.0,99,83,59,30.24,30.14,11,1,15,0.00
2013-10-30,84.5,72.5,62.1,72.0,66.7,61.0,99,83,61,30.24,30.11,6,0,15,0.00
2013-10-31,85.7,72.7,59.8,74.0,66.6,59.0,99,83,54,30.15,29.98,13,1,14,0.00
2013-11-1,86.8,75.8,67.1,75.0,70.3,66.0,98,84,58,30.02,29.88,11,1,16,0.00
2013-11-2,74.7,70.0,63.1,74.0,69.1,62.0,99,97,92,29.99,29.83,7,1,10,1.15
2013-11-3,62.8,61.1,60.9,61.0,60.3,60.0,97,97,97,29.99,29.98,0,0,1,0.00
2013-11-5,79.5,70.8,71.1,70.0,63.3,-99.9,91,83,72,30.14,30.08,7,-31,14,0.00
2013-11-6,85.0,73.5,65.5,72.0,68.2,64.0,98,84,60,30.12,30.03,9,1,12,0.00
2013-11-7,81.6,70.4,64.7,73.0,67.8,64.0,100,92,74,30.07,29.98,5,0,9,0.00
2013-11-8,77.1,68.1,62.5,67.0,63.6,60.0,100,86,65,30.14,30.01,12,2,17,0.00
2013-11-9,80.0,70.1,61.3,68.0,64.1,60.0,96,82,64,30.18,30.11,10,1,17,0.00
2013-11-10,82.0,70.3,61.6,71.0,65.4,62.0,100,86,59,30.18,30.08,9,1,12,0.00
2013-11-11,81.1,71.1,63.2,70.0,66.3,63.0,100,86,60,30.18,30.08,5,0,11,0.00
2013-11-12,78.8,69.8,62.2,71.0,66.6,60.0,100,90,70,30.13,30.01,7,0,10,0.00
2013-11-13,67.9,60.3,52.8,60.0,52.6,49.0,87,76,67,30.32,30.09,15,-80,22,0.00
2013-11-14,75.0,61.8,48.4,60.0,54.5,48.0,99,79,51,30.32,30.19,12,2,17,0.00
2013-11-15,74.6,66.7,57.5,68.0,63.2,57.0,98,89,71,30.20,30.09,4,0,9,0.02
2013-11-16,73.4,69.7,67.5,73.0,69.3,66.0,100,98,89,30.14,30.04,7,1,12,0.27
2013-11-17,83.9,74.8,66.8,76.0,71.3,67.0,100,89,69,30.09,30.00,10,1,11,0.00
2013-11-18,83.7,73.2,65.4,74.0,70.4,65.0,100,91,71,30.04,29.92,8,1,12,0.01
2013-11-19,78.1,71.5,64.2,72.0,68.1,63.0,100,90,71,30.00,29.90,6,0,9,0.00
2013-11-20,82.6,70.3,61.8,74.0,68.1,61.0,100,93,70,30.11,29.98,7,1,13,0.01
2013-11-21,80.6,72.9,70.0,75.0,71.3,70.0,100,95,73,30.20,30.10,9,-103,13,0.04
2013-11-22,80.8,73.5,65.2,73.0,69.5,65.0,100,88,71,30.20,30.10,9,1,14,0.00
2013-11-23,81.4,70.2,61.8,70.0,65.4,62.0,100,86,58,30.13,30.01,4,-62,9,0.00
2013-11-24,69.5,63.5,57.4,65.0,60.4,55.0,100,89,77,30.24,30.04,14,-73,19,0.01
2013-11-25,73.4,66.6,56.6,64.0,59.3,54.0,94,78,61,30.25,30.08,12,2,20,0.00
2013-11-26,81.4,73.8,67.5,74.0,70.8,64.0,100,91,75,30.07,29.77,15,3,23,0.20
2013-11-27,71.5,61.4,42.7,72.0,57.9,39.0,100,88,72,30.23,29.73,14,4,25,0.14
2013-11-28,63.2,49.3,35.3,53.0,44.2,33.0,96,83,65,30.36,30.23,9,1,12,0.00
2013-11-29,71.6,58.4,50.1,60.0,54.1,49.0,99,86,62,30.37,30.28,6,2,15,0.00
2013-11-30,75.7,63.0,51.8,67.0,59.4,51.0,99,89,72,30.33,30.18,10,2,14,0.00
2013-12-1,73.2,64.4,59.8,66.0,62.6,60.0,100,94,78,30.20,29.99,10,1,10,0.00
2013-12-2,69.7,63.1,59.2,64.0,59.9,56.0,100,90,66,29.99,29.86,7,1,11,0.00
2013-12-3,77.0,66.0,54.3,66.0,61.8,54.0,100,88,63,30.00,29.90,6,-72,12,0.00
2013-12-4,82.7,70.1,61.5,72.0,66.7,62.0,100,90,62,30.10,29.98,6,0,9,0.00
2013-12-5,82.1,70.9,60.7,71.0,66.1,61.0,100,86,60,30.19,30.09,9,-73,10,0.01
2013-12-6,83.7,72.9,62.6,74.0,69.0,63.0,100,89,64,30.19,30.09,12,-71,15,0.00
2013-12-7,82.1,70.9,61.8,73.0,65.6,62.0,100,86,53,30.25,30.14,5,-72,9,0.00
2013-12-8,82.9,72.1,63.0,73.0,67.8,63.0,100,88,58,30.23,30.11,9,-72,14,0.01
2013-12-9,82.3,72.1,63.2,73.0,68.4,63.0,100,89,65,30.20,30.09,5,-62,15,0.00
2013-12-10,82.9,71.2,59.5,73.0,65.9,60.0,100,85,50,30.18,30.09,11,-61,14,0.00
2013-12-11,80.5,70.5,59.5,71.0,65.5,57.0,96,84,66,30.26,30.16,5,0,12,0.00
2013-12-12,69.4,61.6,50.7,65.0,52.0,32.0,100,74,31,30.33,30.20,11,-176,13,0.00
2013-12-13,73.6,58.6,43.0,61.0,52.2,41.0,99,81,57,30.29,30.13,8,1,13,0.00
2013-12-14,82.1,71.9,61.6,73.0,67.4,59.0,96,86,69,30.13,29.96,12,-81,16,0.00
2013-12-15,72.5,67.2,55.9,73.0,64.5,55.0,100,91,75,30.14,29.90,15,2,18,0.14
2013-12-16,64.4,54.4,43.1,56.0,48.2,42.0,97,81,52,30.25,30.13,7,-10,11,0.02
2013-12-17,72.9,53.7,39.8,61.0,49.2,39.0,100,86,58,30.27,30.17,5,0,9,0.00
2013-12-18,69.2,52.4,39.8,52.0,45.5,39.0,98,81,45,30.31,30.22,8,0,14,0.01
2013-12-19,74.1,56.5,38.3,60.0,50.5,38.0,100,83,47,30.30,30.19,9,1,12,0.00
2013-12-20,81.5,67.0,52.8,68.0,61.4,52.0,100,84,61,30.22,30.11,9,-51,16,0.00
2013-12-21,83.8,74.0,66.2,72.0,68.6,64.0,100,84,64,30.15,30.03,11,2,18,0.01
2013-12-22,84.1,74.5,68.6,73.0,70.5,68.0,100,88,67,30.15,30.07,11,-71,21,0.00
2013-12-23,84.6,74.3,68.4,75.0,71.1,68.0,100,91,67,30.18,30.09,10,1,13,0.00
2013-12-24,72.1,62.5,42.7,72.0,53.3,34.0,100,75,34,30.28,30.11,10,-134,18,0.00
2013-12-25,75.1,59.1,43.3,63.0,52.3,41.0,96,79,62,30.27,30.15,7,1,14,0.00
2013-12-26,75.4,64.4,57.2,64.0,60.3,57.0,100,87,65,30.23,30.10,8,-94,13,0.00
2013-12-27,68.5,63.8,58.5,67.0,62.4,57.0,98,95,89,30.27,30.16,7,-301,13,0.00
2013-12-28,78.8,70.7,63.9,71.0,67.8,63.0,100,91,75,30.23,30.02,9,2,15,0.00
2013-12-29,77.3,70.4,60.6,74.0,69.8,61.0,100,98,88,30.02,29.89,12,2,18,0.01
2013-12-30,64.1,60.6,58.3,62.0,60.0,56.0,100,98,91,30.21,30.02,7,0,8,0.00
2013-12-31,66.7,61.2,56.7,56.0,54.0,51.0,98,78,59,30.31,30.18,7,-218,14,0.00
2014-1-1,63.9,60.7,58.0,64.0,59.8,53.0,100,97,79,30.27,30.08,5,1,10,0.00
2014-1-2,81.1,68.8,60.1,74.0,67.3,60.0,100,95,72,30.07,29.84,18,3,26,0.75